createdAt,value
2022-12-27T00:05:15.534Z,99449.56
2022-12-27T00:10:37.936Z,99455.72
2022-12-27T00:16:04.302Z,99459.97
2022-12-27T00:21:26.249Z,99469.09
2022-12-27T00:26:47.933Z,99479.13
2022-12-27T00:32:09.652Z,99478.56
2022-12-27T00:37:31.348Z,99487.22
2022-12-27T00:42:53.078Z,99492.19
2022-12-27T00:48:14.904Z,99506.03
2022-12-27T00:53:36.671Z,99515.13
2022-12-27T00:59:01.150Z,99519.78
2022-12-27T01:04:22.832Z,99529.81
2022-12-27T01:09:44.525Z,99552.47
2022-12-27T01:15:08.489Z,99572.06
2022-12-27T01:20:30.196Z,99574.53
2022-12-27T01:26:00.114Z,99592.25
2022-12-27T01:31:25.058Z,99604.31
2022-12-27T01:36:46.792Z,99619.72
2022-12-27T01:42:38.248Z,99622.00
2022-12-27T01:48:04.453Z,99628.84
2022-12-27T01:53:30.851Z,99628.50
2022-12-27T01:58:56.726Z,99635.03
2022-12-27T02:04:23.996Z,99638.19
2022-12-27T02:09:56.097Z,99641.03
2022-12-27T02:15:17.916Z,99649.47
2022-12-27T02:21:06.556Z,99659.25
2022-12-27T02:26:35.630Z,99659.94
2022-12-27T02:32:16.974Z,99668.81
2022-12-27T02:37:44.894Z,99663.72
2022-12-27T02:43:25.782Z,99658.75
2022-12-27T02:49:11.092Z,99658.50
2022-12-27T02:55:05.180Z,99662.91
2022-12-27T03:00:52.713Z,99666.09
2022-12-27T03:06:39.007Z,99671.78
2022-12-27T03:12:25.829Z,99681.81
2022-12-27T03:18:03.925Z,99678.72
2022-12-27T03:23:45.002Z,99685.75
2022-12-27T03:29:27.129Z,99682.47
2022-12-27T03:34:59.438Z,99676.69
2022-12-27T03:41:03.068Z,99686.16
2022-12-27T03:46:33.907Z,99705.34
2022-12-27T03:52:03.709Z,99702.47
2022-12-27T03:57:26.924Z,99710.06
2022-12-27T04:02:48.776Z,99704.13
2022-12-27T04:08:29.100Z,99705.88
2022-12-27T04:14:09.313Z,99698.84
2022-12-27T04:19:49.654Z,99704.72
2022-12-27T04:25:29.909Z,99712.25
2022-12-27T04:31:10.090Z,99703.91
2022-12-27T04:36:31.791Z,99704.81
2022-12-27T04:42:12.171Z,99706.88
2022-12-27T04:47:52.566Z,99703.22
2022-12-27T04:53:36.258Z,99703.28
2022-12-27T04:59:16.546Z,99710.31
2022-12-27T05:04:39.210Z,99718.88
2022-12-27T05:10:23.969Z,99721.19
2022-12-27T05:15:45.743Z,99719.91
2022-12-27T05:21:07.869Z,99726.44
2022-12-27T05:26:30.712Z,99731.31
2022-12-27T05:31:52.404Z,99736.13
2022-12-27T05:37:14.117Z,99734.84
2022-12-27T05:42:35.783Z,99746.47
2022-12-27T05:47:58.852Z,99751.28
2022-12-27T05:53:20.539Z,99752.91
2022-12-27T05:58:42.601Z,99760.69
2022-12-27T06:04:04.425Z,99769.28
2022-12-27T06:09:26.328Z,99775.84
2022-12-27T06:14:48.004Z,99765.56
2022-12-27T06:20:10.711Z,99764.78
2022-12-27T06:25:32.387Z,99760.59
2022-12-27T06:30:54.280Z,99769.06
2022-12-27T06:36:18.971Z,99764.09
2022-12-27T06:41:40.685Z,99771.00
2022-12-27T06:47:03.172Z,99774.97
2022-12-27T06:52:26.313Z,99785.44
2022-12-27T06:57:48.007Z,99790.47
2022-12-27T07:03:09.888Z,99788.13
2022-12-27T07:08:31.730Z,99801.19
2022-12-27T07:13:55.372Z,99802.03
2022-12-27T07:19:17.090Z,99809.75
2022-12-27T07:24:38.805Z,99805.28
2022-12-27T07:30:00.565Z,99815.94
2022-12-27T07:35:22.307Z,99821.59
2022-12-27T07:40:44.021Z,99814.69
2022-12-27T07:46:18.295Z,99817.38
2022-12-27T07:51:40.059Z,99825.81
2022-12-27T07:57:01.750Z,99815.28
2022-12-27T08:02:23.580Z,99816.91
2022-12-27T08:07:45.384Z,99806.53
2022-12-27T08:13:07.079Z,99811.66
2022-12-27T08:18:28.909Z,99803.03
2022-12-27T08:23:50.787Z,99803.03
2022-12-27T08:29:15.604Z,99809.06
2022-12-27T08:34:37.317Z,99808.03
2022-12-27T08:40:02.618Z,99807.94
2022-12-27T08:45:24.741Z,99809.31
2022-12-27T08:50:46.430Z,99810.88
2022-12-27T08:56:08.209Z,99821.94
2022-12-27T09:01:30.050Z,99827.88
2022-12-27T09:06:52.256Z,99833.00
2022-12-27T09:12:13.984Z,99827.25
2022-12-27T09:17:35.869Z,99832.09
2022-12-27T09:22:59.113Z,99840.06
2022-12-27T09:28:20.816Z,99829.63
2022-12-27T09:33:43.138Z,99838.66
2022-12-27T09:39:05.366Z,99849.75
2022-12-27T09:44:40.824Z,99847.25
2022-12-27T09:50:17.744Z,99842.94
2022-12-27T09:55:52.762Z,99835.63
2022-12-27T10:01:35.414Z,99832.91
2022-12-27T10:07:19.883Z,99827.66
2022-12-27T10:12:59.224Z,99833.47
2022-12-27T10:18:31.936Z,99840.09
2022-12-27T10:23:58.292Z,99826.22
2022-12-27T10:29:24.168Z,99824.16
2022-12-27T10:34:49.215Z,99821.59
2022-12-27T10:40:16.887Z,99818.84
2022-12-27T10:45:42.205Z,99823.53
2022-12-27T10:51:11.581Z,99826.81
2022-12-27T10:56:39.157Z,99819.94
2022-12-27T11:02:01.630Z,99815.56
2022-12-27T11:07:30.307Z,99812.75
2022-12-27T11:13:04.734Z,99804.56
2022-12-27T11:18:26.593Z,99810.56
2022-12-27T11:23:53.650Z,99805.94
2022-12-27T11:29:21.829Z,99810.00
2022-12-27T11:34:48.936Z,99806.22
2022-12-27T11:40:34.605Z,99797.22
2022-12-27T11:45:57.658Z,99793.69
2022-12-27T11:51:37.921Z,99783.28
2022-12-27T11:57:29.176Z,99788.28
2022-12-27T12:03:16.411Z,99786.34
2022-12-27T12:09:02.246Z,99778.28
2022-12-27T12:14:45.535Z,99781.72
2022-12-27T12:20:25.327Z,99778.03
2022-12-27T12:26:06.537Z,99771.75
2022-12-27T12:32:05.026Z,99764.75
2022-12-27T12:37:57.186Z,99773.28
2022-12-27T12:43:40.337Z,99774.06
2022-12-27T12:49:25.824Z,99788.66
2022-12-27T12:55:15.623Z,99782.34
2022-12-27T13:01:01.845Z,99779.47
2022-12-27T13:06:50.289Z,99771.53
2022-12-27T13:12:52.858Z,99765.09
2022-12-27T13:18:36.764Z,99768.44
2022-12-27T13:24:33.356Z,99758.19
2022-12-27T13:30:14.331Z,99749.72
2022-12-27T13:35:56.870Z,99753.34
2022-12-27T13:41:38.027Z,99738.84
2022-12-27T13:47:08.687Z,99740.50
2022-12-27T13:52:59.763Z,99737.72
2022-12-27T13:58:56.168Z,99730.78
2022-12-27T14:04:59.020Z,99728.41
2022-12-27T14:10:53.873Z,99727.84
2022-12-27T14:16:38.613Z,99729.56
2022-12-27T14:22:16.441Z,99728.13
2022-12-27T14:28:01.398Z,99729.91
2022-12-27T14:33:41.230Z,99735.25
2022-12-27T14:39:34.281Z,99749.09
2022-12-27T14:45:28.019Z,99745.53
2022-12-27T14:51:58.879Z,99746.75
2022-12-27T14:57:39.923Z,99758.94
2022-12-27T15:03:54.545Z,99754.72
2022-12-27T15:09:38.913Z,99746.47
2022-12-27T15:15:12.662Z,99745.03
2022-12-27T15:20:34.311Z,99738.16
2022-12-27T15:26:11.287Z,99742.66
2022-12-27T15:31:54.515Z,99730.84
2022-12-27T15:37:47.409Z,99718.72
2022-12-27T15:43:21.284Z,99716.28
2022-12-27T15:49:20.240Z,99715.59
2022-12-27T15:55:06.303Z,99721.78
2022-12-27T16:00:34.021Z,99711.47
2022-12-27T16:05:56.918Z,99713.41
2022-12-27T16:11:18.884Z,99717.06
2022-12-27T16:16:50.087Z,99721.53
2022-12-27T16:22:24.881Z,99717.06
2022-12-27T16:27:54.681Z,99714.88
2022-12-27T16:33:33.273Z,99708.50
2022-12-27T16:39:11.418Z,99712.00
2022-12-27T16:44:43.772Z,99715.94
2022-12-27T16:50:32.611Z,99715.16
2022-12-27T16:56:15.091Z,99717.75
2022-12-27T17:01:37.453Z,99721.03
2022-12-27T17:06:59.511Z,99722.31
2022-12-27T17:17:46.827Z,99707.94
2022-12-27T17:23:08.581Z,99695.38
2022-12-27T17:28:40.797Z,99686.72
2022-12-27T17:34:16.770Z,99678.63
2022-12-27T17:39:57.370Z,99674.56
2022-12-27T17:45:34.426Z,99668.53
2022-12-27T17:51:02.009Z,99672.16
2022-12-27T17:56:42.331Z,99650.22
2022-12-27T18:02:15.072Z,99665.94
2022-12-27T18:07:36.913Z,99668.84
2022-12-27T18:13:02.497Z,99663.38
2022-12-27T18:18:31.904Z,99647.84
2022-12-27T18:23:55.044Z,99643.63
2022-12-27T18:29:16.956Z,99645.38
2022-12-27T18:34:46.215Z,99652.63
2022-12-27T18:40:20.225Z,99650.47
2022-12-27T18:45:42.043Z,99634.06
2022-12-27T18:51:04.121Z,99638.22
2022-12-27T18:56:32.350Z,99626.19
2022-12-27T19:01:56.364Z,99623.78
2022-12-27T19:07:18.350Z,99606.81
2022-12-27T19:12:43.363Z,99605.16
2022-12-27T19:18:16.579Z,99605.25
2022-12-27T19:23:43.304Z,99607.94
2022-12-27T19:29:16.160Z,99604.28
2022-12-27T19:34:44.309Z,99600.03
2022-12-27T19:40:06.833Z,99591.66
2022-12-27T19:45:29.939Z,99594.63
2022-12-27T19:50:54.549Z,99587.09
2022-12-27T19:56:16.803Z,99570.63
2022-12-27T20:01:38.689Z,99563.78
2022-12-27T20:07:01.586Z,99560.53
2022-12-27T20:12:23.391Z,99561.31
2022-12-27T20:17:45.446Z,99550.16
2022-12-27T20:23:07.230Z,99549.84
2022-12-27T20:28:28.979Z,99553.22
2022-12-27T20:33:52.582Z,99557.41
2022-12-27T20:39:14.292Z,99553.81
2022-12-27T20:44:36.071Z,99547.13
2022-12-27T20:49:57.745Z,99532.59
2022-12-27T20:55:19.509Z,99532.28
2022-12-27T21:00:41.792Z,99527.63
2022-12-27T21:06:14.354Z,99524.91
2022-12-27T21:11:36.351Z,99528.31
2022-12-27T21:16:58.689Z,99515.66
2022-12-27T21:22:20.635Z,99516.19
2022-12-27T21:27:42.345Z,99520.44
2022-12-27T21:33:04.183Z,99516.97
2022-12-27T21:38:26.622Z,99513.50
2022-12-27T21:43:49.214Z,99513.69
2022-12-27T21:49:13.122Z,99519.72
2022-12-27T21:54:35.209Z,99513.06
2022-12-27T21:59:57.937Z,99507.09
2022-12-27T22:05:19.734Z,99513.78
2022-12-27T22:10:41.668Z,99498.97
2022-12-27T22:16:06.081Z,99492.03
2022-12-27T22:21:32.988Z,99496.22
2022-12-27T22:26:54.713Z,99482.91
2022-12-27T22:32:16.407Z,99486.75
2022-12-27T22:37:38.125Z,99478.13
2022-12-27T22:42:59.829Z,99466.44
2022-12-27T22:48:21.515Z,99453.94
2022-12-27T22:53:43.198Z,99457.06
2022-12-27T22:59:09.731Z,99466.03
2022-12-27T23:04:31.433Z,99449.22
2022-12-27T23:09:53.203Z,99461.78
2022-12-27T23:15:15.509Z,99455.50
2022-12-27T23:20:37.213Z,99446.59
2022-12-27T23:26:07.660Z,99439.44
2022-12-27T23:31:29.570Z,99438.41
2022-12-27T23:36:52.407Z,99439.56
2022-12-27T23:42:14.160Z,99432.41
2022-12-27T23:47:35.856Z,99436.88
2022-12-27T23:52:57.562Z,99435.81
2022-12-27T23:58:19.271Z,99435.44
